In Rescue
 
Open Full Screen Window  High Contrast Mode
Wind Gusting 00 knots
06
March 20, 2019 9:54 PM EDT
Present Weather: Fog
Weather Information
Wind Direction
  020 °
Wind Speed
  06 kt (7 mph)
Wind Gust
  00 kt (0 mph)
Altimeter
29.94 in
Visibility
1/2 SM
Temperature
00° C
32° F
Dewpoint
00° C
32° F
Humidity
100%
1hr Rain Fall
00.00 in.
24hr Rain Fall
00.04 in.
Sky Condition
Overcast @ 300 ft
LIFR

METAR KSAW 210154Z AUTO 02006KT 1/2SM FG OVC003 00/00 A2994 RMK AO2 T00030000

FAA Disclaimer: The data displayed is for advisory purposes only and is not to be used for flight planning or operations.